createdAt,value
2022-10-31T00:01:30.391Z,79.30
2022-10-31T00:03:59.838Z,79.20
2022-10-31T00:06:26.916Z,79.20
2022-10-31T00:08:56.654Z,79.30
2022-10-31T00:11:24.425Z,79.40
2022-10-31T00:13:54.020Z,79.40
2022-10-31T00:16:25.452Z,80.20
2022-10-31T00:18:54.208Z,79.50
2022-10-31T00:21:21.631Z,79.50
2022-10-31T00:23:48.906Z,79.60
2022-10-31T00:26:15.920Z,79.70
2022-10-31T00:28:42.951Z,79.70
2022-10-31T00:31:12.258Z,79.70
2022-10-31T00:33:40.242Z,79.90
2022-10-31T00:36:08.400Z,79.90
2022-10-31T00:38:35.315Z,80.00
2022-10-31T00:41:04.664Z,80.00
2022-10-31T00:43:31.402Z,80.10
2022-10-31T00:45:58.144Z,80.30
2022-10-31T00:48:24.884Z,80.40
2022-10-31T00:50:51.548Z,80.40
2022-10-31T00:53:18.284Z,80.40
2022-10-31T00:55:45.085Z,80.50
2022-10-31T00:58:11.941Z,80.50
2022-10-31T01:00:38.761Z,80.60
2022-10-31T01:03:05.588Z,80.60
2022-10-31T01:05:32.448Z,80.60
2022-10-31T01:07:59.938Z,80.60
2022-10-31T01:10:26.648Z,80.60
2022-10-31T01:12:53.417Z,80.70
2022-10-31T01:15:22.804Z,80.70
2022-10-31T01:17:50.341Z,80.80
2022-10-31T01:20:19.806Z,80.80
2022-10-31T01:22:49.110Z,80.80
2022-10-31T01:25:15.875Z,80.90
2022-10-31T01:27:42.601Z,80.90
2022-10-31T01:30:12.432Z,81.00
2022-10-31T01:32:39.079Z,81.00
2022-10-31T01:35:06.153Z,81.10
2022-10-31T01:37:33.102Z,81.90
2022-10-31T01:39:59.867Z,81.20
2022-10-31T01:42:26.585Z,81.20
2022-10-31T01:44:57.662Z,81.20
2022-10-31T01:47:36.140Z,81.20
2022-10-31T01:50:10.696Z,81.10
2022-10-31T01:52:58.662Z,81.20
2022-10-31T01:55:33.499Z,81.30
2022-10-31T01:58:05.758Z,81.20
2022-10-31T02:00:32.826Z,81.30
2022-10-31T02:03:00.669Z,81.30
2022-10-31T02:05:31.357Z,81.40
2022-10-31T02:08:12.822Z,81.50
2022-10-31T02:10:41.094Z,81.50
2022-10-31T02:13:08.904Z,81.50
2022-10-31T02:15:38.426Z,81.50
2022-10-31T02:18:07.856Z,81.50
2022-10-31T02:20:42.876Z,81.50
2022-10-31T02:23:32.033Z,81.40
2022-10-31T02:26:07.689Z,81.40
2022-10-31T02:29:00.631Z,81.40
2022-10-31T02:31:42.403Z,81.50
2022-10-31T02:34:47.981Z,81.50
2022-10-31T02:37:37.599Z,81.40
2022-10-31T02:40:25.571Z,81.50
2022-10-31T02:45:50.606Z,81.60
2022-10-31T02:48:24.224Z,81.80
2022-10-31T02:50:56.773Z,81.70
2022-10-31T02:53:23.530Z,81.80
2022-10-31T02:55:57.421Z,81.90
2022-10-31T02:58:27.651Z,81.70
2022-10-31T03:01:20.348Z,81.70
2022-10-31T03:04:06.923Z,81.80
2022-10-31T03:07:10.970Z,81.70
2022-10-31T03:09:56.335Z,81.80
2022-10-31T03:13:00.699Z,81.70
2022-10-31T03:15:36.731Z,81.70
2022-10-31T03:18:22.432Z,81.90
2022-10-31T03:21:17.660Z,82.00
2022-10-31T03:23:47.210Z,82.20
2022-10-31T03:26:15.730Z,82.30
2022-10-31T03:28:51.703Z,82.30
2022-10-31T03:31:21.300Z,82.20
2022-10-31T03:33:50.522Z,83.00
2022-10-31T03:36:18.897Z,82.10
2022-10-31T03:38:47.583Z,82.20
2022-10-31T03:41:20.157Z,82.40
2022-10-31T03:43:58.987Z,82.40
2022-10-31T03:46:25.904Z,82.20
2022-10-31T03:48:52.922Z,82.20
2022-10-31T03:51:43.653Z,82.10
2022-10-31T03:54:32.413Z,82.10
2022-10-31T03:57:09.200Z,82.20
2022-10-31T03:59:42.601Z,82.30
2022-10-31T04:02:20.890Z,82.40
2022-10-31T04:04:49.525Z,82.50
2022-10-31T04:07:19.348Z,82.50
2022-10-31T04:09:51.406Z,82.60
2022-10-31T04:12:18.619Z,82.80
2022-10-31T04:14:48.774Z,82.80
2022-10-31T04:17:18.790Z,82.90
2022-10-31T04:19:45.854Z,82.90
2022-10-31T04:22:12.687Z,82.80
2022-10-31T04:24:41.322Z,82.90
2022-10-31T04:27:08.422Z,83.10
2022-10-31T04:29:35.163Z,83.10
2022-10-31T04:32:05.016Z,83.10
2022-10-31T04:34:31.698Z,83.20
2022-10-31T04:36:58.447Z,83.30
2022-10-31T04:39:26.787Z,83.40
2022-10-31T04:41:53.665Z,83.50
2022-10-31T04:44:20.603Z,83.40
2022-10-31T04:46:47.492Z,83.40
2022-10-31T04:49:14.447Z,83.50
2022-10-31T04:51:41.237Z,83.50
2022-10-31T04:54:08.112Z,83.50
2022-10-31T04:56:34.828Z,83.60
2022-10-31T04:59:01.647Z,83.60
2022-10-31T05:01:29.026Z,83.80
2022-10-31T05:03:55.902Z,83.80
2022-10-31T05:06:24.929Z,83.90
2022-10-31T05:08:54.693Z,83.90
2022-10-31T05:11:21.441Z,84.10
2022-10-31T05:13:48.230Z,84.10
2022-10-31T05:16:17.442Z,84.20
2022-10-31T05:18:45.639Z,84.30
2022-10-31T05:21:12.419Z,84.40
2022-10-31T05:23:40.355Z,84.50
2022-10-31T05:26:09.816Z,84.60
2022-10-31T05:28:36.511Z,84.70
2022-10-31T05:31:03.916Z,84.90
2022-10-31T05:33:30.763Z,85.10
2022-10-31T05:35:57.466Z,85.10
2022-10-31T05:38:24.237Z,85.20
2022-10-31T05:40:51.035Z,85.30
2022-10-31T05:43:17.713Z,85.30
2022-10-31T05:45:44.461Z,85.50
2022-10-31T05:48:11.245Z,85.60
2022-10-31T05:50:38.185Z,85.70
2022-10-31T05:53:06.411Z,85.80
2022-10-31T05:55:33.576Z,85.90
2022-10-31T05:58:00.818Z,86.00
2022-10-31T06:00:28.950Z,86.00
2022-10-31T06:03:04.119Z,86.10
2022-10-31T06:05:32.002Z,86.10
2022-10-31T06:07:59.419Z,86.20
2022-10-31T06:10:27.418Z,86.30
2022-10-31T06:12:54.877Z,86.50
2022-10-31T06:15:24.413Z,86.50
2022-10-31T06:18:21.091Z,86.50
2022-10-31T06:20:47.765Z,86.20
2022-10-31T06:23:14.537Z,86.60
2022-10-31T06:25:41.220Z,86.60
2022-10-31T06:28:08.075Z,86.80
2022-10-31T06:30:34.819Z,86.80
2022-10-31T06:33:05.718Z,86.80
2022-10-31T06:35:35.705Z,87.00
2022-10-31T06:38:03.107Z,87.00
2022-10-31T06:40:30.131Z,87.00
2022-10-31T06:42:59.248Z,87.20
2022-10-31T06:45:26.123Z,87.40
2022-10-31T06:48:16.168Z,87.40
2022-10-31T06:50:43.913Z,87.50
2022-10-31T06:53:14.342Z,87.50
2022-10-31T06:55:41.698Z,87.50
2022-10-31T06:58:11.025Z,87.60
2022-10-31T07:00:38.150Z,87.70
2022-10-31T07:03:07.960Z,87.70
2022-10-31T07:05:34.840Z,88.70
2022-10-31T07:08:07.652Z,87.80
2022-10-31T07:10:40.134Z,87.80
2022-10-31T07:13:14.563Z,87.80
2022-10-31T07:15:43.258Z,87.80
2022-10-31T07:18:12.562Z,87.70
2022-10-31T07:20:39.296Z,87.70
2022-10-31T07:23:06.452Z,87.50
2022-10-31T07:25:33.553Z,87.50
2022-10-31T07:28:00.631Z,87.70
2022-10-31T07:30:27.795Z,87.60
2022-10-31T07:32:57.905Z,87.70
2022-10-31T07:35:26.959Z,87.60
2022-10-31T07:37:54.268Z,87.70
2022-10-31T07:40:21.513Z,87.60
2022-10-31T07:42:57.915Z,87.70
2022-10-31T07:45:24.589Z,87.80
2022-10-31T07:47:53.103Z,87.60
2022-10-31T07:50:26.349Z,87.80
2022-10-31T07:53:04.084Z,87.70
2022-10-31T07:55:31.361Z,87.70
2022-10-31T07:58:03.754Z,87.60
2022-10-31T08:00:32.079Z,87.70
2022-10-31T08:03:04.430Z,87.50
2022-10-31T08:05:31.744Z,87.50
2022-10-31T08:07:59.446Z,88.00
2022-10-31T08:10:27.570Z,88.70
2022-10-31T08:13:05.342Z,88.10
2022-10-31T08:15:33.196Z,87.10
2022-10-31T08:18:00.231Z,85.10
2022-10-31T08:20:27.297Z,83.80
2022-10-31T08:22:59.125Z,82.40
2022-10-31T08:25:27.029Z,81.70
2022-10-31T08:27:55.193Z,80.40
2022-10-31T08:30:23.771Z,79.90
2022-10-31T08:33:04.559Z,79.50
2022-10-31T08:35:32.127Z,80.30
2022-10-31T08:37:59.997Z,80.00
2022-10-31T08:40:28.910Z,80.00
2022-10-31T08:43:00.235Z,80.20
2022-10-31T08:45:27.557Z,80.40
2022-10-31T08:47:59.246Z,80.80
2022-10-31T08:50:26.842Z,81.40
2022-10-31T08:53:05.287Z,81.90
2022-10-31T08:55:35.405Z,82.10
2022-10-31T08:58:03.335Z,82.70
2022-10-31T09:00:30.517Z,83.10
2022-10-31T09:03:05.780Z,83.50
2022-10-31T09:05:33.399Z,83.80
2022-10-31T09:08:02.024Z,84.10
2022-10-31T09:10:30.915Z,84.20
2022-10-31T09:12:58.097Z,84.30
2022-10-31T09:15:26.014Z,84.20
2022-10-31T09:17:53.074Z,84.30
2022-10-31T09:20:20.578Z,84.60
2022-10-31T09:22:47.590Z,84.90
2022-10-31T09:25:18.524Z,85.10
2022-10-31T09:27:46.650Z,85.10
2022-10-31T09:30:14.762Z,85.20
2022-10-31T09:32:41.599Z,85.00
2022-10-31T09:35:08.922Z,85.10
2022-10-31T09:37:35.991Z,85.20
2022-10-31T09:40:03.025Z,85.20
2022-10-31T09:42:35.521Z,85.50
2022-10-31T09:45:11.294Z,85.30
2022-10-31T09:48:05.671Z,85.50
2022-10-31T09:50:48.556Z,85.60
2022-10-31T09:53:34.077Z,85.80
2022-10-31T09:56:01.477Z,85.70
2022-10-31T09:58:32.113Z,85.80
2022-10-31T10:01:04.224Z,85.80
2022-10-31T10:03:42.585Z,85.70
2022-10-31T10:06:19.049Z,85.50
2022-10-31T10:08:46.293Z,85.10
2022-10-31T10:11:33.104Z,85.00
2022-10-31T10:14:40.922Z,85.10
2022-10-31T10:17:42.590Z,84.80
2022-10-31T10:20:41.519Z,85.00
2022-10-31T10:23:29.822Z,84.90
2022-10-31T10:26:11.435Z,84.80
2022-10-31T10:28:42.745Z,85.80
2022-10-31T10:31:15.581Z,85.20
2022-10-31T10:33:51.839Z,85.40
2022-10-31T10:36:37.850Z,85.50
2022-10-31T10:39:21.518Z,85.30
2022-10-31T10:42:09.269Z,85.40
2022-10-31T10:45:05.713Z,85.30
2022-10-31T10:47:42.462Z,85.30
2022-10-31T10:50:26.572Z,85.40
2022-10-31T10:53:23.429Z,85.50
2022-10-31T10:56:01.456Z,85.50
2022-10-31T10:58:28.233Z,85.50
2022-10-31T11:00:56.661Z,85.40
2022-10-31T11:03:23.562Z,85.30
2022-10-31T11:06:02.756Z,85.00
2022-10-31T11:08:34.610Z,84.90
2022-10-31T11:11:26.896Z,84.80
2022-10-31T11:14:04.296Z,84.70
2022-10-31T11:16:44.083Z,84.80
2022-10-31T11:19:13.629Z,84.90
2022-10-31T11:21:40.474Z,85.10
2022-10-31T11:24:09.933Z,85.10
2022-10-31T11:26:41.770Z,84.90
2022-10-31T11:29:34.613Z,85.00
2022-10-31T11:32:01.801Z,84.80
2022-10-31T11:34:37.142Z,84.60
2022-10-31T11:37:15.921Z,84.20
2022-10-31T11:39:45.133Z,84.10
2022-10-31T11:42:13.045Z,84.30
2022-10-31T11:44:44.310Z,84.30
2022-10-31T11:47:15.249Z,84.30
2022-10-31T11:49:50.395Z,84.40
2022-10-31T11:52:26.554Z,84.30
2022-10-31T11:55:23.585Z,84.20
2022-10-31T11:57:57.950Z,84.10
2022-10-31T12:00:30.880Z,83.90
2022-10-31T12:03:16.583Z,84.00
2022-10-31T12:05:46.757Z,83.70
2022-10-31T12:08:14.844Z,83.70
2022-10-31T12:10:50.443Z,83.40
2022-10-31T12:13:38.480Z,84.30
2022-10-31T12:16:21.322Z,83.50
2022-10-31T12:19:04.308Z,83.40
2022-10-31T12:21:59.004Z,84.30
2022-10-31T12:25:05.166Z,83.60
2022-10-31T12:28:03.855Z,83.40
2022-10-31T12:30:57.129Z,83.20
2022-10-31T12:33:48.334Z,83.10
2022-10-31T12:36:52.788Z,83.00
2022-10-31T12:39:40.342Z,82.90
2022-10-31T12:42:39.421Z,83.50
2022-10-31T12:45:17.292Z,82.60
2022-10-31T12:48:07.634Z,82.50
2022-10-31T12:50:36.063Z,82.50
2022-10-31T12:55:49.488Z,82.30
2022-10-31T12:58:48.121Z,82.30
2022-10-31T13:01:23.509Z,82.90
2022-10-31T13:04:04.189Z,82.20
2022-10-31T13:06:42.042Z,82.20
2022-10-31T13:09:16.860Z,81.90
2022-10-31T13:11:48.910Z,81.90
2022-10-31T13:14:30.326Z,81.70
2022-10-31T13:16:57.942Z,81.80
2022-10-31T13:19:38.013Z,81.70
2022-10-31T13:22:23.533Z,81.70
2022-10-31T13:25:09.341Z,81.80
2022-10-31T13:28:03.717Z,81.70
2022-10-31T13:30:34.915Z,81.70
2022-10-31T13:33:25.255Z,81.80
2022-10-31T13:36:19.746Z,81.60
2022-10-31T13:39:19.234Z,81.60
2022-10-31T13:41:52.154Z,81.30
2022-10-31T13:44:27.693Z,81.30
2022-10-31T13:46:58.370Z,81.20
2022-10-31T13:49:33.979Z,81.20
2022-10-31T13:52:15.402Z,81.20
2022-10-31T13:54:47.117Z,80.90
2022-10-31T13:57:30.160Z,80.70
2022-10-31T14:00:08.370Z,80.50
2022-10-31T14:02:37.359Z,80.50
2022-10-31T14:05:08.773Z,80.50
2022-10-31T14:07:47.113Z,80.30
2022-10-31T14:10:28.316Z,80.20
2022-10-31T14:13:18.785Z,80.20
2022-10-31T14:15:56.937Z,80.00
2022-10-31T14:18:36.849Z,80.00
2022-10-31T14:21:28.550Z,80.00
2022-10-31T14:23:56.189Z,80.00
2022-10-31T14:26:34.413Z,80.00
2022-10-31T14:29:30.640Z,80.80
2022-10-31T14:32:11.895Z,79.90
2022-10-31T14:34:51.098Z,79.80
2022-10-31T14:37:44.857Z,79.70
2022-10-31T14:40:36.903Z,79.50
2022-10-31T14:43:31.975Z,79.40
2022-10-31T14:46:40.426Z,79.40
2022-10-31T14:49:33.490Z,79.20
2022-10-31T14:52:00.375Z,79.20
2022-10-31T14:54:33.977Z,79.30
2022-10-31T14:57:06.581Z,79.10
2022-10-31T14:59:39.228Z,79.00
2022-10-31T15:02:37.584Z,79.00
2022-10-31T15:05:09.977Z,79.00
2022-10-31T15:07:37.895Z,79.00
2022-10-31T15:10:08.990Z,79.10
2022-10-31T15:12:39.820Z,79.20
2022-10-31T15:15:23.003Z,79.10
2022-10-31T15:17:59.691Z,79.10
2022-10-31T15:20:30.049Z,79.00
2022-10-31T15:22:58.735Z,79.00
2022-10-31T15:25:28.269Z,78.90
2022-10-31T15:27:55.111Z,79.00
2022-10-31T15:30:27.166Z,78.90
2022-10-31T15:32:58.692Z,78.80
2022-10-31T15:35:30.859Z,78.90
2022-10-31T15:37:59.854Z,78.70
2022-10-31T15:40:30.051Z,78.80
2022-10-31T15:43:03.239Z,78.70
2022-10-31T15:45:31.300Z,78.70
2022-10-31T15:47:59.793Z,78.70
2022-10-31T15:50:41.730Z,78.80
2022-10-31T15:53:20.709Z,78.70
2022-10-31T15:55:52.889Z,78.80
2022-10-31T15:58:20.198Z,78.90
2022-10-31T16:01:05.160Z,79.00
2022-10-31T16:03:34.020Z,79.00
2022-10-31T16:06:06.148Z,79.10
2022-10-31T16:08:35.522Z,79.10
2022-10-31T16:11:08.232Z,79.10
2022-10-31T16:13:44.596Z,80.10
2022-10-31T16:19:06.969Z,79.30
2022-10-31T16:21:38.228Z,79.40
2022-10-31T16:24:27.427Z,79.50
2022-10-31T16:26:58.043Z,79.40
2022-10-31T16:29:33.847Z,79.70
2022-10-31T16:32:00.655Z,79.70
2022-10-31T16:34:27.437Z,79.90
2022-10-31T16:36:54.648Z,79.90
2022-10-31T16:39:23.927Z,80.00
2022-10-31T16:41:58.487Z,80.00
2022-10-31T16:44:27.699Z,80.10
2022-10-31T16:47:14.618Z,80.20
2022-10-31T16:49:43.062Z,80.10
2022-10-31T16:52:10.253Z,80.40
2022-10-31T16:54:36.989Z,80.40
2022-10-31T16:57:05.773Z,80.50
2022-10-31T16:59:34.340Z,80.50
2022-10-31T17:02:02.085Z,80.70
2022-10-31T17:04:29.272Z,80.70
2022-10-31T17:06:55.990Z,80.80
2022-10-31T17:09:22.754Z,80.70
2022-10-31T17:11:52.287Z,80.90
2022-10-31T17:14:19.522Z,80.90
2022-10-31T17:16:46.212Z,81.00
2022-10-31T17:19:16.489Z,81.10
2022-10-31T17:21:43.574Z,81.20
2022-10-31T17:24:15.224Z,81.30
2022-10-31T17:26:42.409Z,81.40
2022-10-31T17:29:09.140Z,81.50
2022-10-31T17:31:39.078Z,81.50
2022-10-31T17:34:07.312Z,81.60
2022-10-31T17:36:38.190Z,81.70
2022-10-31T17:39:07.499Z,81.70
2022-10-31T17:41:34.469Z,81.70
2022-10-31T17:44:07.483Z,81.70
2022-10-31T17:46:34.234Z,81.70
2022-10-31T17:49:01.780Z,81.70
2022-10-31T17:51:28.571Z,81.60
2022-10-31T17:53:55.330Z,81.70
2022-10-31T17:56:22.063Z,81.60
2022-10-31T17:58:48.814Z,81.70
2022-10-31T18:01:17.607Z,81.60
2022-10-31T18:03:44.835Z,81.70
2022-10-31T18:06:14.467Z,81.60
2022-10-31T18:08:41.467Z,81.70
2022-10-31T18:11:11.277Z,81.70
2022-10-31T18:13:38.984Z,81.70
2022-10-31T18:16:16.889Z,81.70
2022-10-31T18:18:43.585Z,81.60
2022-10-31T18:21:13.565Z,81.70
2022-10-31T18:23:40.266Z,81.60
2022-10-31T18:26:07.063Z,81.60
2022-10-31T18:28:33.732Z,81.70
2022-10-31T18:31:00.635Z,81.70
2022-10-31T18:33:27.748Z,81.60
2022-10-31T18:35:54.454Z,81.60
2022-10-31T18:38:24.587Z,81.60
2022-10-31T18:40:51.866Z,81.70
2022-10-31T18:43:18.628Z,81.60
2022-10-31T18:45:48.605Z,81.70
2022-10-31T18:48:17.353Z,81.70
2022-10-31T18:50:44.770Z,81.70
2022-10-31T18:53:11.603Z,81.70
2022-10-31T18:55:50.200Z,81.70
2022-10-31T18:58:17.800Z,81.80
2022-10-31T19:00:45.840Z,81.80
2022-10-31T19:03:13.325Z,81.70
2022-10-31T19:05:40.161Z,81.70
2022-10-31T19:08:07.258Z,81.70
2022-10-31T19:10:38.637Z,81.70
2022-10-31T19:13:05.807Z,81.70
2022-10-31T19:15:35.102Z,81.70
2022-10-31T19:18:04.710Z,81.70
2022-10-31T19:20:31.911Z,81.80
2022-10-31T19:22:59.087Z,81.80
2022-10-31T19:25:26.039Z,81.90
2022-10-31T19:27:52.918Z,81.80
2022-10-31T19:30:24.102Z,82.70
2022-10-31T19:32:55.847Z,81.80
2022-10-31T19:35:22.744Z,81.90
2022-10-31T19:37:49.564Z,81.90
2022-10-31T19:40:16.440Z,81.90
2022-10-31T19:42:43.447Z,81.80
2022-10-31T19:45:11.027Z,81.90
2022-10-31T19:47:37.983Z,81.80
2022-10-31T19:50:05.099Z,81.80
2022-10-31T19:52:35.336Z,81.80
2022-10-31T19:55:02.592Z,81.70
2022-10-31T19:57:56.268Z,81.70
2022-10-31T20:00:19.053Z,81.80
2022-10-31T20:02:45.744Z,81.70
2022-10-31T20:05:12.514Z,81.60
2022-10-31T20:07:39.267Z,81.50
2022-10-31T20:10:07.386Z,81.60
2022-10-31T20:12:34.258Z,81.50
2022-10-31T20:15:01.011Z,81.50
2022-10-31T20:17:27.777Z,81.60
2022-10-31T20:19:58.031Z,81.40
2022-10-31T20:22:24.933Z,81.40
2022-10-31T20:24:51.634Z,81.40
2022-10-31T20:27:18.322Z,81.30
2022-10-31T20:29:45.124Z,81.40
2022-10-31T20:32:11.933Z,81.20
2022-10-31T20:34:39.563Z,81.10
2022-10-31T20:37:06.356Z,81.00
2022-10-31T20:39:33.230Z,81.00
2022-10-31T20:41:59.917Z,80.90
2022-10-31T20:44:26.891Z,80.80
2022-10-31T20:46:53.639Z,80.70
2022-10-31T20:49:20.405Z,80.70
2022-10-31T20:51:47.173Z,80.60
2022-10-31T20:54:14.501Z,80.50
2022-10-31T20:56:41.226Z,80.40
2022-10-31T20:59:08.261Z,80.40
2022-10-31T21:01:36.662Z,80.40
2022-10-31T21:04:04.771Z,80.30
2022-10-31T21:06:31.782Z,80.20
2022-10-31T21:08:58.582Z,80.20
2022-10-31T21:11:27.335Z,80.20
2022-10-31T21:13:54.487Z,80.20
2022-10-31T21:16:35.820Z,80.20
2022-10-31T21:19:04.204Z,80.10
2022-10-31T21:21:33.938Z,80.00
2022-10-31T21:24:03.710Z,80.00
2022-10-31T21:26:33.786Z,80.00
2022-10-31T21:29:01.713Z,80.00
2022-10-31T21:31:28.427Z,79.90
2022-10-31T21:33:55.793Z,79.90
2022-10-31T21:36:22.701Z,80.70
2022-10-31T21:38:51.331Z,79.90
2022-10-31T21:41:21.779Z,79.80
2022-10-31T21:43:50.457Z,79.70
2022-10-31T21:46:20.115Z,79.70
2022-10-31T21:48:47.295Z,79.60
2022-10-31T21:51:26.314Z,79.60
2022-10-31T21:54:12.890Z,79.50
2022-10-31T21:56:40.386Z,79.40
2022-10-31T21:59:07.398Z,79.40
2022-10-31T22:01:35.392Z,79.30
2022-10-31T22:04:08.452Z,79.20
2022-10-31T22:06:36.265Z,79.90
2022-10-31T22:09:06.487Z,79.00
2022-10-31T22:11:34.316Z,79.00
2022-10-31T22:14:01.518Z,78.90
2022-10-31T22:16:30.359Z,79.10
2022-10-31T22:18:59.400Z,78.80
2022-10-31T22:21:27.861Z,78.70
2022-10-31T22:23:56.671Z,78.70
2022-10-31T22:26:24.241Z,78.50
2022-10-31T22:28:53.516Z,78.40
2022-10-31T22:31:22.667Z,78.40
2022-10-31T22:33:50.089Z,78.40
2022-10-31T22:36:19.772Z,78.30
2022-10-31T22:38:47.631Z,78.30
2022-10-31T22:41:17.550Z,78.30
2022-10-31T22:43:45.121Z,78.30
2022-10-31T22:46:14.645Z,78.30
2022-10-31T22:48:44.115Z,78.20
2022-10-31T22:51:16.857Z,78.30
2022-10-31T22:53:47.524Z,78.30
2022-10-31T22:56:20.096Z,78.30
2022-10-31T22:58:49.239Z,78.40
2022-10-31T23:01:25.578Z,78.30
2022-10-31T23:03:52.626Z,78.30
2022-10-31T23:06:21.915Z,78.50
2022-10-31T23:08:49.782Z,78.50
2022-10-31T23:11:26.044Z,78.50
2022-10-31T23:14:14.251Z,78.40
2022-10-31T23:16:52.877Z,78.40
2022-10-31T23:19:22.627Z,78.30
2022-10-31T23:22:02.314Z,78.40
2022-10-31T23:24:46.300Z,78.50
2022-10-31T23:27:16.918Z,78.50
2022-10-31T23:29:49.514Z,78.80
2022-10-31T23:32:33.704Z,78.60
2022-10-31T23:35:10.067Z,78.70
2022-10-31T23:37:38.613Z,78.80
2022-10-31T23:40:08.659Z,79.00
2022-10-31T23:42:35.571Z,79.00
2022-10-31T23:45:02.457Z,79.10
2022-10-31T23:47:29.283Z,79.10
2022-10-31T23:49:56.067Z,79.10
2022-10-31T23:52:22.936Z,79.10
2022-10-31T23:54:49.599Z,79.10
2022-10-31T23:57:17.200Z,79.10
2022-10-31T23:59:44.306Z,79.20
